createdAt,value
2022-11-26T00:02:57.567Z,100.00
2022-11-26T00:08:02.124Z,100.00
2022-11-26T00:13:15.809Z,100.00
2022-11-26T00:18:19.565Z,100.00
2022-11-26T00:23:25.864Z,100.00
2022-11-26T00:28:32.821Z,100.00
2022-11-26T00:33:35.776Z,100.00
2022-11-26T00:38:38.888Z,100.00
2022-11-26T00:43:41.988Z,100.00
2022-11-26T00:48:44.999Z,100.00
2022-11-26T00:53:49.027Z,100.00
2022-11-26T00:58:52.137Z,100.00
2022-11-26T01:03:55.450Z,100.00
2022-11-26T01:08:58.761Z,100.00
2022-11-26T01:14:01.876Z,100.00
2022-11-26T01:19:06.315Z,100.00
2022-11-26T01:24:09.422Z,100.00
2022-11-26T01:29:17.136Z,100.00
2022-11-26T01:34:20.247Z,100.00
2022-11-26T01:39:24.173Z,100.00
2022-11-26T01:44:30.969Z,100.00
2022-11-26T01:49:35.521Z,100.00
2022-11-26T01:54:42.443Z,100.00
2022-11-26T01:59:50.644Z,100.00
2022-11-26T02:05:24.474Z,100.00
2022-11-26T02:10:27.477Z,100.00
2022-11-26T02:15:41.848Z,100.00
2022-11-26T02:20:57.348Z,100.00
2022-11-26T02:26:31.073Z,100.00
2022-11-26T02:31:49.483Z,100.00
2022-11-26T02:37:08.631Z,100.00
2022-11-26T02:42:29.800Z,100.00
2022-11-26T02:47:35.015Z,100.00
2022-11-26T02:52:41.531Z,100.00
2022-11-26T02:57:48.912Z,100.00
2022-11-26T03:03:02.146Z,100.00
2022-11-26T03:08:07.129Z,100.00
2022-11-26T03:13:10.427Z,100.00
2022-11-26T03:18:13.635Z,100.00
2022-11-26T03:23:16.642Z,100.00
2022-11-26T03:28:19.752Z,100.00
2022-11-26T03:33:22.757Z,100.00
2022-11-26T03:38:25.869Z,100.00
2022-11-26T03:43:29.538Z,100.00
2022-11-26T03:48:32.595Z,100.00
2022-11-26T03:53:35.702Z,100.00
2022-11-26T03:58:38.858Z,100.00
2022-11-26T04:03:42.128Z,100.00
2022-11-26T04:08:45.132Z,100.00
2022-11-26T04:13:48.239Z,100.00
2022-11-26T04:18:51.350Z,100.00
2022-11-26T04:23:54.479Z,100.00
2022-11-26T04:28:57.669Z,100.00
2022-11-26T04:34:00.676Z,100.00
2022-11-26T04:39:03.836Z,100.00
2022-11-26T04:44:06.998Z,100.00
2022-11-26T04:49:10.005Z,100.00
2022-11-26T04:54:13.420Z,100.00
2022-11-26T04:59:16.737Z,100.00
2022-11-26T05:04:20.454Z,100.00
2022-11-26T05:09:23.670Z,100.00
2022-11-26T05:14:26.780Z,100.00
2022-11-26T05:19:29.787Z,100.00
2022-11-26T05:24:32.888Z,100.00
2022-11-26T05:29:36.157Z,100.00
2022-11-26T05:34:39.275Z,100.00
2022-11-26T05:39:42.419Z,100.00
2022-11-26T05:44:45.323Z,100.00
2022-11-26T05:49:48.430Z,100.00
2022-11-26T05:54:51.436Z,100.00
2022-11-26T05:59:54.443Z,100.00
2022-11-26T06:04:57.756Z,100.00
2022-11-26T06:10:00.866Z,100.00
2022-11-26T06:15:04.253Z,100.00
2022-11-26T06:20:08.188Z,100.00
2022-11-26T06:25:13.841Z,100.00
2022-11-26T06:30:16.885Z,100.00
2022-11-26T06:35:19.894Z,100.00
2022-11-26T06:40:23.205Z,100.00
2022-11-26T06:45:26.282Z,100.00
2022-11-26T06:50:29.524Z,100.00
2022-11-26T06:55:32.531Z,100.00
2022-11-26T07:00:35.844Z,100.00
2022-11-26T07:05:38.849Z,100.00
2022-11-26T07:10:46.068Z,100.00
2022-11-26T07:15:52.113Z,100.00
2022-11-26T07:20:55.348Z,100.00
2022-11-26T07:26:03.070Z,100.00
2022-11-26T07:31:16.549Z,100.00
2022-11-26T07:36:25.976Z,100.00
2022-11-26T07:41:30.414Z,100.00
2022-11-26T07:46:33.571Z,100.00
2022-11-26T07:51:37.240Z,100.00
2022-11-26T07:56:40.247Z,100.00
2022-11-26T08:01:43.422Z,100.00
2022-11-26T08:06:46.439Z,100.00
2022-11-26T08:11:49.474Z,100.00
2022-11-26T08:16:52.616Z,100.00
2022-11-26T08:21:55.798Z,100.00
2022-11-26T08:27:00.096Z,100.00
2022-11-26T08:32:03.804Z,100.00
2022-11-26T08:37:07.068Z,100.00
2022-11-26T08:42:10.176Z,100.00
2022-11-26T08:47:13.230Z,100.00
2022-11-26T08:52:16.498Z,100.00
2022-11-26T08:57:19.502Z,100.00
2022-11-26T09:02:23.322Z,100.00
2022-11-26T09:07:26.374Z,100.00
2022-11-26T09:12:29.448Z,100.00
2022-11-26T09:17:32.552Z,100.00
2022-11-26T09:22:35.872Z,100.00
2022-11-26T09:27:39.078Z,100.00
2022-11-26T09:32:42.306Z,100.00
2022-11-26T09:37:51.252Z,100.00
2022-11-26T09:43:00.891Z,100.00
2022-11-26T09:48:05.676Z,100.00
2022-11-26T09:53:36.885Z,100.00
2022-11-26T09:58:54.454Z,100.00
2022-11-26T10:03:58.485Z,100.00
2022-11-26T10:09:16.659Z,100.00
2022-11-26T10:14:32.659Z,100.00
2022-11-26T10:19:36.198Z,100.00
2022-11-26T10:24:43.078Z,100.00
2022-11-26T10:29:55.089Z,100.00
2022-11-26T10:34:59.267Z,99.77
2022-11-26T10:40:24.962Z,99.85
2022-11-26T10:45:40.874Z,100.00
2022-11-26T10:51:14.399Z,100.00
2022-11-26T10:56:20.886Z,99.22
2022-11-26T11:01:24.127Z,99.14
2022-11-26T11:06:37.527Z,99.79
2022-11-26T11:11:40.555Z,99.41
2022-11-26T11:16:46.323Z,99.22
2022-11-26T11:21:49.639Z,99.92
2022-11-26T11:26:55.616Z,99.40
2022-11-26T11:32:02.187Z,99.11
2022-11-26T11:37:15.961Z,99.52
2022-11-26T11:42:29.411Z,99.81
2022-11-26T11:47:46.561Z,99.73
2022-11-26T11:52:54.860Z,99.94
2022-11-26T11:58:07.311Z,100.00
2022-11-26T12:03:33.769Z,99.90
2022-11-26T12:08:42.917Z,99.43
2022-11-26T12:13:51.658Z,99.50
2022-11-26T12:19:39.724Z,99.95
2022-11-26T12:24:50.921Z,99.78
2022-11-26T12:30:01.506Z,100.00
2022-11-26T12:35:12.698Z,99.98
2022-11-26T12:40:33.528Z,99.66
2022-11-26T12:46:06.681Z,99.90
2022-11-26T12:51:41.392Z,100.00
2022-11-26T12:57:29.862Z,100.00
2022-11-26T13:02:37.314Z,100.00
2022-11-26T13:08:17.661Z,99.93
2022-11-26T13:13:33.563Z,99.32
2022-11-26T13:19:18.832Z,99.42
2022-11-26T13:24:49.107Z,99.38
2022-11-26T13:30:12.298Z,99.27
2022-11-26T13:35:16.937Z,99.80
2022-11-26T13:40:23.009Z,99.92
2022-11-26T13:45:28.692Z,100.00
2022-11-26T13:50:41.111Z,100.00
2022-11-26T13:55:51.454Z,99.98
2022-11-26T14:00:54.536Z,100.00
2022-11-26T14:06:02.405Z,100.00
2022-11-26T14:11:09.795Z,100.00
2022-11-26T14:16:12.880Z,100.00
2022-11-26T14:21:17.773Z,100.00
2022-11-26T14:26:34.639Z,100.00
2022-11-26T14:31:52.391Z,100.00
2022-11-26T14:36:59.051Z,100.00
2022-11-26T14:42:06.110Z,100.00
2022-11-26T14:47:21.420Z,100.00
2022-11-26T14:52:37.472Z,100.00
2022-11-26T14:57:40.574Z,100.00
2022-11-26T15:02:48.580Z,100.00
2022-11-26T15:08:00.625Z,100.00
2022-11-26T15:13:14.068Z,100.00
2022-11-26T15:18:20.141Z,100.00
2022-11-26T15:23:31.648Z,100.00
2022-11-26T15:28:39.279Z,100.00
2022-11-26T15:33:43.908Z,100.00
2022-11-26T15:39:03.363Z,100.00
2022-11-26T15:44:19.108Z,100.00
2022-11-26T15:49:29.177Z,100.00
2022-11-26T15:55:04.571Z,100.00
2022-11-26T16:00:08.565Z,100.00
2022-11-26T16:05:39.636Z,100.00
2022-11-26T16:10:46.534Z,100.00
2022-11-26T16:16:02.550Z,100.00
2022-11-26T16:21:18.420Z,100.00
2022-11-26T16:26:21.670Z,100.00
2022-11-26T16:31:24.948Z,100.00
2022-11-26T16:36:32.833Z,100.00
2022-11-26T16:41:35.910Z,100.00
2022-11-26T16:46:41.310Z,100.00
2022-11-26T16:51:44.478Z,100.00
2022-11-26T16:56:49.549Z,100.00
2022-11-26T17:01:55.230Z,100.00
2022-11-26T17:06:58.254Z,100.00
2022-11-26T17:12:01.319Z,100.00
2022-11-26T17:17:04.381Z,100.00
2022-11-26T17:22:09.302Z,100.00
2022-11-26T17:27:14.638Z,100.00
2022-11-26T17:32:19.997Z,100.00
2022-11-26T17:37:25.225Z,100.00
2022-11-26T17:42:32.169Z,100.00
2022-11-26T17:47:38.540Z,100.00
2022-11-26T17:52:41.547Z,100.00
2022-11-26T17:57:45.253Z,100.00
2022-11-26T18:02:48.352Z,100.00
2022-11-26T18:07:52.007Z,100.00
2022-11-26T18:12:55.623Z,100.00
2022-11-26T18:17:58.933Z,100.00
2022-11-26T18:23:02.043Z,100.00
2022-11-26T18:28:05.053Z,100.00
2022-11-26T18:33:08.771Z,100.00
2022-11-26T18:38:11.779Z,100.00
2022-11-26T18:43:14.688Z,100.00
2022-11-26T18:48:17.691Z,100.00
2022-11-26T18:53:20.722Z,100.00
2022-11-26T18:58:25.149Z,100.00
2022-11-26T19:03:28.360Z,100.00
2022-11-26T19:08:32.688Z,100.00
2022-11-26T19:13:36.371Z,100.00
2022-11-26T19:18:40.527Z,100.00
2022-11-26T19:23:43.556Z,100.00
2022-11-26T19:28:47.175Z,100.00
2022-11-26T19:33:55.494Z,100.00
2022-11-26T19:39:00.234Z,100.00
2022-11-26T19:44:05.505Z,100.00
2022-11-26T19:49:12.241Z,100.00
2022-11-26T19:54:15.562Z,100.00
2022-11-26T19:59:21.582Z,100.00
2022-11-26T20:04:28.231Z,100.00
2022-11-26T20:09:31.295Z,100.00
2022-11-26T20:14:34.404Z,100.00
2022-11-26T20:19:37.722Z,100.00
2022-11-26T20:24:41.235Z,100.00
2022-11-26T20:29:44.252Z,100.00
2022-11-26T20:34:48.258Z,100.00
2022-11-26T20:39:51.477Z,100.00
2022-11-26T20:44:56.180Z,100.00
2022-11-26T20:49:59.443Z,100.00
2022-11-26T20:55:04.941Z,100.00
2022-11-26T21:00:10.770Z,100.00
2022-11-26T21:05:15.071Z,100.00
2022-11-26T21:10:18.690Z,100.00
2022-11-26T21:15:23.275Z,100.00
2022-11-26T21:20:26.492Z,100.00
2022-11-26T21:25:29.805Z,100.00
2022-11-26T21:30:34.191Z,100.00
2022-11-26T21:35:37.725Z,100.00
2022-11-26T21:40:40.670Z,100.00
2022-11-26T21:45:43.834Z,100.00
2022-11-26T21:50:46.887Z,100.00
2022-11-26T21:55:49.997Z,100.00
2022-11-26T22:00:53.001Z,100.00
2022-11-26T22:05:59.609Z,100.00
2022-11-26T22:11:15.089Z,100.00
2022-11-26T22:16:20.498Z,100.00
2022-11-26T22:21:26.834Z,100.00
2022-11-26T22:26:31.261Z,100.00
2022-11-26T22:31:36.760Z,100.00
2022-11-26T22:36:41.383Z,100.00
2022-11-26T22:41:46.429Z,100.00
2022-11-26T22:46:49.765Z,100.00
2022-11-26T22:51:52.857Z,100.00
2022-11-26T22:56:55.762Z,100.00
2022-11-26T23:01:58.782Z,100.00
2022-11-26T23:07:01.881Z,100.00
2022-11-26T23:12:04.988Z,100.00
2022-11-26T23:17:07.992Z,100.00
2022-11-26T23:22:11.002Z,100.00
2022-11-26T23:27:14.211Z,100.00
2022-11-26T23:32:17.215Z,100.00
2022-11-26T23:37:20.224Z,100.00
2022-11-26T23:42:23.691Z,100.00
2022-11-26T23:47:26.759Z,100.00
2022-11-26T23:52:29.969Z,100.00
2022-11-26T23:57:33.071Z,100.00
